Time;durP1;ratioP1;P1;durP2;ratioP2;P2;SDS_P1;SDS_P2;PMS_P1;PMS_P2;Temp;Humidity;BMP_temperature;BMP_pressure;BME280_temperature;BME280_humidity;BME280_pressure;Samples;Min_cycle;Max_cycle;Signal;HPM_P1;HPM_P2
2021/01/10 00:02:21;;;;;;;118.07;51.38;;;;;;;-2.80;92.87;98572.09;5091496;28;20048;-73
2021/01/10 00:04:46;;;;;;;117.78;49.55;;;;;;;-2.61;91.01;98573.63;5091046;28;20047;-73
2021/01/10 00:07:12;;;;;;;113.93;50.40;;;;;;;-2.65;90.76;98574.53;5091400;28;20055;-74
2021/01/10 00:09:38;;;;;;;119.53;51.70;;;;;;;-2.04;87.19;98578.09;5091865;28;20067;-74
2021/01/10 00:12:03;;;;;;;124.80;51.28;;;;;;;-2.44;88.82;98576.00;5094158;28;20050;-74
2021/01/10 00:14:29;;;;;;;119.25;51.50;;;;;;;-2.45;90.65;98576.03;5097392;28;20044;-74
2021/01/10 00:16:55;;;;;;;133.95;52.65;;;;;;;-2.32;89.61;98577.56;5092148;28;20100;-73
2021/01/10 00:19:21;;;;;;;132.73;53.67;;;;;;;-2.43;90.41;98581.97;5091277;28;20055;-74
2021/01/10 00:21:47;;;;;;;132.40;55.63;;;;;;;-2.57;90.98;98577.84;5092196;28;20051;-74
2021/01/10 00:24:12;;;;;;;124.15;55.42;;;;;;;-2.53;90.58;98588.94;5091234;28;20441;-73
2021/01/10 00:26:38;;;;;;;131.68;54.63;;;;;;;-2.52;92.37;98598.31;5094838;28;20044;-73
2021/01/10 00:29:06;;;;;;;136.68;55.58;;;;;;;-2.50;91.93;98590.59;5095595;28;20052;-74
2021/01/10 00:31:33;;;;;;;123.32;54.40;;;;;;;-2.53;91.43;98597.50;5078042;28;20048;-74
2021/01/10 00:33:58;;;;;;;126.00;54.75;;;;;;;-2.52;91.84;98588.94;5095595;28;20087;-73
2021/01/10 00:36:34;;;;;;;131.90;53.13;;;;;;;-2.41;90.22;98598.22;5094029;28;20043;-74
2021/01/10 00:39:02;;;;;;;131.77;56.25;;;;;;;-2.52;92.14;98599.19;5095202;28;20048;-73
2021/01/10 00:41:38;;;;;;;119.65;54.85;;;;;;;-2.49;91.11;98600.03;5095089;28;20640;-74
2021/01/10 00:44:05;;;;;;;129.05;54.20;;;;;;;-2.31;90.72;98606.69;5095976;28;20118;-73
2021/01/10 00:46:32;;;;;;;126.65;53.28;;;;;;;-2.16;88.17;98596.22;5095570;28;20131;-74
2021/01/10 00:48:58;;;;;;;128.02;53.55;;;;;;;-2.25;89.89;98604.88;5093951;28;20093;-73
2021/01/10 00:51:24;;;;;;;123.00;51.28;;;;;;;-2.35;89.73;98619.56;5094974;28;20040;-73
2021/01/10 00:53:50;;;;;;;120.28;54.83;;;;;;;-2.41;90.46;98616.19;5095422;28;20537;-73
2021/01/10 00:56:16;;;;;;;127.15;53.20;;;;;;;-2.53;90.74;98606.91;5094742;28;20090;-74
2021/01/10 00:58:41;;;;;;;129.50;53.50;;;;;;;-2.54;91.73;98616.31;5094206;28;20044;-73
2021/01/10 01:01:07;;;;;;;120.05;52.38;;;;;;;-2.27;90.28;98616.91;5095054;28;20040;-74
2021/01/10 01:03:33;;;;;;;121.97;53.97;;;;;;;-2.35;89.92;98617.00;5094767;28;20079;-74
2021/01/10 01:05:59;;;;;;;126.75;53.30;;;;;;;-2.47;90.40;98619.69;5095070;28;20040;-73
2021/01/10 01:08:24;;;;;;;126.30;52.70;;;;;;;-2.17;89.22;98621.03;5094474;28;20051;-73
2021/01/10 01:10:51;;;;;;;121.55;52.55;;;;;;;-2.18;88.13;98615.94;5094679;28;20153;-73
2021/01/10 01:13:16;;;;;;;122.18;51.35;;;;;;;-2.28;88.87;98627.19;5094840;28;20067;-73
2021/01/10 01:15:42;;;;;;;136.20;56.75;;;;;;;-2.53;90.83;98617.19;5095021;28;20504;-73
2021/01/10 01:18:09;;;;;;;126.15;52.53;;;;;;;-2.53;90.29;98624.88;5095143;28;20059;-73
2021/01/10 01:20:35;;;;;;;130.60;55.05;;;;;;;-2.56;89.78;98627.47;5094933;28;20155;-73
2021/01/10 01:23:04;;;;;;;135.10;57.78;;;;;;;-2.88;91.68;98623.50;5095054;28;20062;-73
2021/01/10 01:25:30;;;;;;;140.20;58.72;;;;;;;-3.04;92.92;98625.34;5094171;28;20119;-73
2021/01/10 01:27:55;;;;;;;134.50;58.95;;;;;;;-3.05;93.64;98621.06;5094547;28;20170;-74
2021/01/10 01:30:22;;;;;;;141.48;59.13;;;;;;;-3.09;93.35;98612.56;5094051;28;20044;-74
2021/01/10 01:32:47;;;;;;;145.50;59.67;;;;;;;-3.30;94.51;98618.69;5094111;28;20530;-74
2021/01/10 01:35:13;;;;;;;148.30;60.45;;;;;;;-3.38;95.19;98619.59;5093813;28;20178;-74
2021/01/10 01:37:41;;;;;;;144.70;59.75;;;;;;;-3.52;95.85;98622.25;5093647;28;20043;-73
2021/01/10 01:40:08;;;;;;;149.27;62.65;;;;;;;-3.67;97.27;98615.53;5094104;28;20047;-74
2021/01/10 01:42:34;;;;;;;159.70;63.97;;;;;;;-3.72;98.93;98615.56;5094145;28;20361;-73
2021/01/10 01:45:03;;;;;;;156.40;64.65;;;;;;;-3.66;98.40;98624.91;5095200;28;20040;-73
2021/01/10 01:47:29;;;;;;;149.73;65.10;;;;;;;-3.48;97.03;98629.91;5095514;28;20047;-73
2021/01/10 01:49:55;;;;;;;156.27;64.78;;;;;;;-3.64;97.58;98618.91;5094386;28;20130;-73
2021/01/10 01:52:21;;;;;;;149.52;64.05;;;;;;;-3.83;98.74;98622.44;5093634;28;20048;-74
2021/01/10 01:54:48;;;;;;;154.02;64.57;;;;;;;-3.91;99.20;98622.47;5094222;28;20058;-73
2021/01/10 01:57:13;;;;;;;155.07;67.93;;;;;;;-4.03;100.00;98620.84;5092709;28;20074;-75
2021/01/10 01:59:39;;;;;;;165.70;68.10;;;;;;;-4.05;100.00;98616.56;5094072;28;20481;-74
2021/01/10 02:02:08;;;;;;;171.00;70.93;;;;;;;-4.15;100.00;98616.59;5086668;28;20046;-73
2021/01/10 02:04:53;;;;;;;172.27;72.75;;;;;;;-4.02;100.00;98601.19;5085099;28;20495;-73
2021/01/10 02:07:27;;;;;;;177.88;71.95;;;;;;;-4.22;100.00;98612.34;5073392;28;20047;-74
2021/01/10 02:09:59;;;;;;;170.48;71.00;;;;;;;-4.33;100.00;98612.41;5074206;28;20435;-73
2021/01/10 02:12:29;;;;;;;176.95;74.55;;;;;;;-4.33;100.00;98616.69;5073217;28;20451;-74
2021/01/10 02:14:58;;;;;;;175.82;70.35;;;;;;;-4.36;100.00;98620.09;5073539;28;20048;-73
2021/01/10 02:17:29;;;;;;;175.35;74.18;;;;;;;-4.26;100.00;98608.13;5073303;28;20143;-74
2021/01/10 02:20:05;;;;;;;178.57;73.05;;;;;;;-4.38;100.00;98616.69;5073685;28;20070;-73
2021/01/10 02:22:43;;;;;;;191.45;77.78;;;;;;;-4.42;100.00;98619.25;5072967;28;20500;-73
2021/01/10 02:25:11;;;;;;;194.73;79.32;;;;;;;-4.50;100.00;98619.28;5073448;28;20053;-73
2021/01/10 02:27:38;;;;;;;185.18;78.45;;;;;;;-4.50;100.00;98626.97;5072761;28;20041;-73
2021/01/10 02:30:05;;;;;;;200.00;84.30;;;;;;;-4.49;100.00;98615.88;5073971;28;20120;-74
2021/01/10 02:32:34;;;;;;;194.82;81.10;;;;;;;-4.54;100.00;98618.44;5093081;28;20494;-74
2021/01/10 02:35:01;;;;;;;199.68;82.95;;;;;;;-4.59;100.00;98617.59;5093268;28;20048;-74
2021/01/10 02:37:46;;;;;;;210.95;85.07;;;;;;;-4.52;100.00;98629.53;5093070;28;20044;-74
2021/01/10 02:40:33;;;;;;;217.82;89.55;;;;;;;-4.54;100.00;98622.69;5093404;28;20043;-73
2021/01/10 02:43:07;;;;;;;231.82;92.18;;;;;;;-4.44;100.00;98628.66;5093355;28;20119;-74
2021/01/10 02:45:35;;;;;;;228.85;94.93;;;;;;;-4.41;100.00;98628.66;5092941;28;20529;-74
2021/01/10 02:48:01;;;;;;;257.02;103.70;;;;;;;-4.26;100.00;98618.38;5093359;28;20123;-73
2021/01/10 02:50:27;;;;;;;253.88;105.75;;;;;;;-4.30;100.00;98618.38;5091802;28;20135;-74
2021/01/10 02:52:53;;;;;;;265.63;111.25;;;;;;;-4.27;100.00;98626.06;5092897;28;20044;-74
2021/01/10 02:55:18;;;;;;;265.30;108.03;;;;;;;-4.19;100.00;98619.19;5092872;28;20074;-74
2021/01/10 02:57:50;;;;;;;265.75;107.28;;;;;;;-4.09;100.00;98620.88;5093329;28;20154;-74
2021/01/10 03:00:17;;;;;;;255.88;105.20;;;;;;;-4.01;100.00;98626.78;5093163;28;20067;-74
2021/01/10 03:02:45;;;;;;;273.80;109.47;;;;;;;-4.04;100.00;98616.56;5092617;28;20464;-73
2021/01/10 03:05:12;;;;;;;256.42;104.10;;;;;;;-3.94;100.00;98624.19;5092815;28;20051;-74
2021/01/10 03:07:40;;;;;;;282.23;108.78;;;;;;;-3.87;100.00;98625.88;5091640;28;20059;-74
2021/01/10 03:10:10;;;;;;;268.73;107.85;;;;;;;-3.74;100.00;98619.81;5091706;28;20044;-74
2021/01/10 03:12:36;;;;;;;259.77;105.60;;;;;;;-3.69;100.00;98623.22;5092437;28;20119;-74
2021/01/10 03:15:05;;;;;;;256.50;104.90;;;;;;;-3.70;100.00;98618.97;5092970;28;20050;-74
2021/01/10 03:17:35;;;;;;;250.82;103.60;;;;;;;-3.65;100.00;98626.63;5092303;28;20441;-74
2021/01/10 03:20:03;;;;;;;252.00;106.65;;;;;;;-3.65;100.00;98627.47;5092482;28;20126;-73
2021/01/10 03:22:28;;;;;;;263.13;107.18;;;;;;;-3.64;100.00;98618.09;5091165;28;20043;-74
2021/01/10 03:24:55;;;;;;;258.98;104.70;;;;;;;-3.56;100.00;98616.31;5092301;28;20040;-74
2021/01/10 03:27:21;;;;;;;251.48;101.13;;;;;;;-3.16;100.00;98620.31;5092393;28;20066;-73
2021/01/10 03:29:47;;;;;;;248.10;101.22;;;;;;;-3.17;100.00;98613.47;5092412;28;20491;-73
2021/01/10 03:32:13;;;;;;;259.77;101.72;;;;;;;-3.15;100.00;98611.75;5092525;28;20047;-74
2021/01/10 03:34:38;;;;;;;269.02;101.75;;;;;;;-3.28;100.00;98611.84;5091994;28;20054;-73
2021/01/10 03:37:04;;;;;;;260.38;102.65;;;;;;;-3.28;100.00;98616.13;5092416;28;20044;-73
2021/01/10 03:39:30;;;;;;;270.05;107.28;;;;;;;-3.42;100.00;98613.66;5091698;28;20090;-73
2021/01/10 03:41:57;;;;;;;267.17;104.53;;;;;;;-3.51;100.00;98617.13;5092476;28;20055;-73
2021/01/10 03:44:24;;;;;;;267.67;107.93;;;;;;;-3.61;100.00;98613.78;5091830;28;20101;-74
2021/01/10 03:46:51;;;;;;;273.08;109.63;;;;;;;-3.68;100.00;98616.38;5092267;28;20045;-73
2021/01/10 03:49:16;;;;;;;266.02;106.93;;;;;;;-3.60;100.00;98617.19;5092038;28;20549;-73
2021/01/10 03:51:42;;;;;;;262.70;104.88;;;;;;;-3.70;100.00;98615.56;5091804;28;20036;-73
2021/01/10 03:54:08;;;;;;;260.65;101.30;;;;;;;-3.72;100.00;98618.13;5091770;28;20048;-73
2021/01/10 03:56:34;;;;;;;260.95;103.93;;;;;;;-3.74;100.00;98617.25;5091718;28;20048;-73
2021/01/10 03:59:00;;;;;;;262.45;107.05;;;;;;;-3.71;100.00;98611.28;5092046;28;20055;-72
2021/01/10 04:01:25;;;;;;;244.63;101.00;;;;;;;-3.64;100.00;98607.84;5096525;28;20048;-76
2021/01/10 04:03:51;;;;;;;256.60;102.15;;;;;;;-3.68;100.00;98616.38;5098716;28;20172;-73
2021/01/10 04:06:17;;;;;;;250.77;101.97;;;;;;;-3.68;100.00;98609.53;5099106;28;20055;-73
2021/01/10 04:08:46;;;;;;;236.75;96.38;;;;;;;-3.69;100.00;98618.09;5098667;28;20044;-73
2021/01/10 04:11:11;;;;;;;251.65;102.07;;;;;;;-3.60;100.00;98623.19;5098814;28;20503;-73
2021/01/10 04:13:37;;;;;;;239.65;100.72;;;;;;;-3.51;100.00;98616.28;5098203;28;20051;-73
2021/01/10 04:16:03;;;;;;;237.80;98.68;;;;;;;-3.57;100.00;98613.75;5098217;28;20058;-73
2021/01/10 04:18:29;;;;;;;226.57;96.82;;;;;;;-3.55;100.00;98620.59;5097933;28;20143;-74
2021/01/10 04:20:54;;;;;;;221.73;94.93;;;;;;;-3.54;100.00;98613.75;5098886;28;20040;-72
2021/01/10 04:23:20;;;;;;;222.23;93.22;;;;;;;-3.36;100.00;98611.06;5098535;28;20044;-73
2021/01/10 04:25:49;;;;;;;225.10;92.88;;;;;;;-3.44;100.00;98611.09;5098328;28;20068;-73
2021/01/10 04:28:16;;;;;;;230.20;94.45;;;;;;;-3.45;100.00;98611.13;5098784;28;20040;-73
2021/01/10 04:30:42;;;;;;;225.80;95.45;;;;;;;-3.48;100.00;98614.53;5098302;28;20119;-73
2021/01/10 04:33:08;;;;;;;238.50;96.72;;;;;;;-3.46;100.00;98620.53;5098521;28;20123;-73
2021/01/10 04:35:34;;;;;;;226.20;94.43;;;;;;;-3.30;100.00;98617.84;5097204;28;20044;-73
2021/01/10 04:37:59;;;;;;;216.15;91.80;;;;;;;-3.44;100.00;98621.34;5098539;28;20502;-73
2021/01/10 04:40:25;;;;;;;221.98;92.63;;;;;;;-3.50;100.00;98620.56;5096285;28;20479;-75
2021/01/10 04:42:53;;;;;;;235.93;97.60;;;;;;;-3.55;100.00;98617.16;5098401;28;20042;-73
2021/01/10 04:45:19;;;;;;;224.50;95.60;;;;;;;-3.47;100.00;98615.41;5090291;28;20055;-73
2021/01/10 04:47:45;;;;;;;234.32;96.97;;;;;;;-3.48;100.00;98624.78;5077524;28;20040;-73
2021/01/10 04:50:11;;;;;;;229.48;95.82;;;;;;;-3.38;100.00;98628.16;5078053;28;20135;-73
2021/01/10 04:52:42;;;;;;;215.90;92.68;;;;;;;-3.07;100.00;98633.06;5077867;28;20083;-73
2021/01/10 04:55:08;;;;;;;215.40;91.85;;;;;;;-3.12;100.00;98639.94;5091472;28;20094;-73
2021/01/10 04:57:35;;;;;;;220.18;92.80;;;;;;;-3.20;100.00;98632.28;5097115;28;20564;-75
2021/01/10 05:00:10;;;;;;;216.25;90.00;;;;;;;-3.22;100.00;98631.47;5096858;28;20042;-74
2021/01/10 05:02:46;;;;;;;217.93;90.97;;;;;;;-3.16;100.00;98639.09;5098072;28;20109;-73
2021/01/10 05:05:13;;;;;;;207.13;88.53;;;;;;;-3.05;100.00;98639.03;5094641;28;20060;-74
2021/01/10 05:07:41;;;;;;;221.27;91.97;;;;;;;-3.17;100.00;98644.25;5097497;28;20051;-74
2021/01/10 05:10:08;;;;;;;218.18;89.63;;;;;;;-2.85;99.84;98640.59;5097962;28;20052;-73
2021/01/10 05:12:33;;;;;;;212.88;84.63;;;;;;;-2.44;94.61;98636.75;5094403;28;20059;-73
2021/01/10 05:14:59;;;;;;;224.43;87.88;;;;;;;-2.91;96.04;98642.31;5094858;28;20044;-74
2021/01/10 05:17:25;;;;;;;211.93;86.65;;;;;;;-2.74;96.66;98644.75;5095367;28;20055;-75
2021/01/10 05:19:52;;;;;;;219.77;90.97;;;;;;;-2.73;94.89;98637.91;5093839;28;20040;-73
2021/01/10 05:22:20;;;;;;;225.13;90.05;;;;;;;-2.81;97.60;98637.09;5095181;28;20078;-72
2021/01/10 05:24:49;;;;;;;221.40;91.68;;;;;;;-2.63;95.29;98642.06;5094136;28;20460;-73
2021/01/10 05:27:15;;;;;;;220.25;91.55;;;;;;;-2.63;93.88;98642.06;5094412;28;20044;-71
2021/01/10 05:29:46;;;;;;;244.75;95.40;;;;;;;-2.85;97.10;98641.44;5094335;28;20149;-72
2021/01/10 05:32:11;;;;;;;229.48;92.45;;;;;;;-2.91;96.39;98642.31;5094095;28;20376;-71
2021/01/10 05:34:37;;;;;;;224.73;92.72;;;;;;;-3.18;97.52;98642.53;5093703;28;20090;-71
2021/01/10 05:37:14;;;;;;;235.20;96.38;;;;;;;-3.31;99.59;98639.22;5094941;28;20399;-71
2021/01/10 05:39:45;;;;;;;238.55;94.85;;;;;;;-3.34;100.00;98645.22;5093365;28;20044;-71
2021/01/10 05:42:12;;;;;;;234.30;96.38;;;;;;;-3.36;100.00;98634.13;5088708;28;20116;-73
2021/01/10 05:44:40;;;;;;;236.80;95.22;;;;;;;-3.04;97.83;98645.88;5093564;28;20065;-74
2021/01/10 05:47:08;;;;;;;217.00;87.50;;;;;;;-3.13;98.45;98645.94;5093998;28;20043;-74
2021/01/10 05:49:46;;;;;;;213.73;89.68;;;;;;;-3.24;99.92;98646.03;5093891;28;20399;-73
2021/01/10 05:52:12;;;;;;;215.27;90.00;;;;;;;-3.20;98.13;98644.28;5094460;28;20155;-74
2021/01/10 05:54:38;;;;;;;218.27;90.22;;;;;;;-3.28;99.17;98652.03;5093779;28;20048;-72
2021/01/10 05:57:06;;;;;;;226.23;92.10;;;;;;;-3.17;97.88;98652.78;5085213;28;20399;-73
2021/01/10 05:59:34;;;;;;;222.38;93.78;;;;;;;-3.39;99.23;98649.53;5080966;28;20135;-75
2021/01/10 06:02:05;;;;;;;227.68;94.00;;;;;;;-3.55;100.00;98653.03;5093118;28;20039;-73
2021/01/10 06:04:32;;;;;;;231.77;96.03;;;;;;;-3.55;100.00;98653.03;5093442;28;20068;-75
2021/01/10 06:06:58;;;;;;;228.82;98.10;;;;;;;-3.64;100.00;98656.53;5093731;28;20040;-73
2021/01/10 06:09:25;;;;;;;231.48;94.57;;;;;;;-3.54;100.00;98654.75;5094180;28;20052;-72
2021/01/10 06:11:51;;;;;;;229.35;94.63;;;;;;;-3.67;100.00;98654.81;5093579;28;20058;-72
2021/01/10 06:14:23;;;;;;;227.05;96.43;;;;;;;-3.68;100.00;98660.78;5091169;28;20507;-72
2021/01/10 06:16:57;;;;;;;236.88;97.68;;;;;;;-3.85;100.00;98660.88;5093220;28;20488;-74
2021/01/10 06:19:28;;;;;;;228.30;95.82;;;;;;;-3.94;100.00;98660.91;5093968;28;20052;-73
2021/01/10 06:21:57;;;;;;;252.13;103.35;;;;;;;-3.96;100.00;98666.03;5092643;28;20078;-73
2021/01/10 06:24:26;;;;;;;252.00;101.38;;;;;;;-3.93;100.00;98661.78;5093819;28;20051;-72
2021/01/10 06:27:04;;;;;;;249.02;101.95;;;;;;;-3.87;100.00;98661.75;5093622;28;20043;-73
2021/01/10 06:29:37;;;;;;;236.60;99.82;;;;;;;-3.92;100.00;98666.88;5093988;28;20055;-73
2021/01/10 06:32:04;;;;;;;;;;;;;;;-3.84;100.00;98671.97;5082826;28;20043;-76
2021/01/10 06:34:32;;;;;;;247.20;95.13;;;;;;;-3.84;100.00;98669.41;5093462;28;19927;-72
2021/01/10 06:37:00;;;;;;;230.38;96.30;;;;;;;-3.57;100.00;98665.00;5093304;28;20150;-72
2021/01/10 06:39:30;;;;;;;241.90;96.57;;;;;;;-3.62;100.00;98668.44;5092298;28;20131;-70
2021/01/10 06:41:56;;;;;;;231.15;99.13;;;;;;;-3.52;100.00;98684.63;5092259;28;20032;-70
2021/01/10 06:44:23;;;;;;;231.55;97.70;;;;;;;-3.64;100.00;98675.28;5092839;28;20044;-71
2021/01/10 06:46:55;;;;;;;226.88;98.30;;;;;;;-3.67;100.00;98683.00;5077681;28;20072;-72
2021/01/10 06:49:21;;;;;;;222.98;91.53;;;;;;;-3.64;100.00;98674.44;5073021;28;20090;-71
2021/01/10 06:51:51;;;;;;;230.90;94.07;;;;;;;-3.44;100.00;98679.47;5078944;28;20088;-72
2021/01/10 06:54:17;;;;;;;217.30;93.93;;;;;;;-3.36;100.00;98685.41;5092970;28;20057;-70
2021/01/10 06:56:53;;;;;;;223.07;92.65;;;;;;;-3.21;98.70;98694.72;5092247;28;20507;-71
2021/01/10 06:59:28;;;;;;;217.32;89.72;;;;;;;-3.17;98.52;98690.41;5092340;28;20484;-71
2021/01/10 07:01:56;;;;;;;218.60;87.15;;;;;;;-3.18;99.27;98688.69;5089536;28;20036;-69
2021/01/10 07:04:32;;;;;;;221.77;92.20;;;;;;;-3.19;99.23;98687.00;5089650;28;20496;-71
2021/01/10 07:06:57;;;;;;;200.75;90.90;;;;;;;-3.12;98.35;98689.53;5071530;28;20123;-73
2021/01/10 07:09:23;;;;;;;220.07;98.78;;;;;;;-3.19;99.17;98681.88;5072179;28;20056;-69
2021/01/10 07:11:51;;;;;;;213.15;95.18;;;;;;;-2.88;97.71;98691.03;5082750;28;20089;-70
2021/01/10 07:14:17;;;;;;;204.00;89.32;;;;;;;-2.80;94.76;98687.56;5092238;28;20044;-70
2021/01/10 07:16:46;;;;;;;193.23;84.80;;;;;;;-2.74;94.53;98696.06;5091760;28;20056;-70
2021/01/10 07:19:15;;;;;;;189.60;82.55;;;;;;;-2.47;92.03;98688.13;5092798;28;20066;-69
2021/01/10 07:21:46;;;;;;;183.32;79.60;;;;;;;-2.75;94.14;98693.50;5090789;28;20045;-70
2021/01/10 07:24:24;;;;;;;182.23;80.78;;;;;;;-2.47;92.49;98698.41;5092222;28;20455;-71
2021/01/10 07:26:50;;;;;;;180.05;81.07;;;;;;;-2.58;91.88;98699.38;5091805;28;20126;-71
2021/01/10 07:29:43;;;;;;;183.73;80.05;;;;;;;-2.65;94.31;98705.41;5092491;28;20048;-70
2021/01/10 07:32:15;;;;;;;175.90;78.93;;;;;;;-2.60;95.23;98698.50;5090311;28;20051;-70
2021/01/10 07:34:43;;;;;;;180.05;77.38;;;;;;;-2.66;94.54;98708.84;5092678;28;20047;-70
2021/01/10 07:37:11;;;;;;;181.57;82.10;;;;;;;-2.50;94.14;98706.13;5090966;28;20568;-72
2021/01/10 07:39:52;;;;;;;193.77;81.90;;;;;;;-2.51;93.41;98702.72;5090805;28;20040;-70
2021/01/10 07:42:20;;;;;;;179.27;79.85;;;;;;;-2.39;93.35;98702.59;5092265;28;20459;-71
2021/01/10 07:44:56;;;;;;;182.63;79.68;;;;;;;-2.52;92.68;98701.00;5091174;28;20040;-73
2021/01/10 07:47:31;;;;;;;174.45;77.32;;;;;;;-2.42;92.07;98712.06;5091027;28;20047;-71
2021/01/10 07:50:12;;;;;;;174.13;80.15;;;;;;;-2.44;92.46;98713.78;5091280;28;20055;-71
2021/01/10 07:52:42;;;;;;;187.48;81.25;;;;;;;-2.49;93.13;98708.69;5091148;28;20055;-74
2021/01/10 07:55:22;;;;;;;188.30;80.32;;;;;;;-2.28;92.04;98710.22;5090856;28;20488;-71
2021/01/10 07:57:52;;;;;;;;;;;;;;;-2.37;92.27;98721.41;5087519;28;20063;-71
2021/01/10 08:00:27;;;;;;;172.95;74.93;;;;;;;-2.41;92.57;98713.75;5091624;28;19928;-71
2021/01/10 08:03:11;;;;;;;179.93;75.93;;;;;;;-2.18;90.12;98716.97;5091716;28;20594;-71
2021/01/10 08:05:41;;;;;;;161.48;70.07;;;;;;;-2.13;88.85;98713.47;5091196;28;20032;-71
2021/01/10 08:08:13;;;;;;;158.18;69.80;;;;;;;-2.08;88.30;98727.16;5082507;28;20492;-70
2021/01/10 08:10:54;;;;;;;161.73;70.60;;;;;;;-1.96;88.91;98731.28;5072075;28;20072;-71
2021/01/10 08:13:29;;;;;;;156.82;69.78;;;;;;;-2.08;88.30;98728.00;5082924;28;20287;-70
2021/01/10 08:16:32;;;;;;;158.20;67.07;;;;;;;-1.88;87.24;98720.06;5091195;28;20104;-69
2021/01/10 10:44:31;;;;;;;54.47;29.23;;;;;;;1.17;65.52;98715.69;5110387;27;20395;-70
2021/01/10 10:46:57;;;;;;;56.97;29.55;;;;;;;0.73;66.32;98712.38;5091798;28;20453;-70
2021/01/10 10:49:23;;;;;;;56.15;29.48;;;;;;;0.87;65.62;98700.03;5090086;28;20054;-72
2021/01/10 10:51:48;;;;;;;64.65;32.90;;;;;;;1.58;65.39;98708.69;5091072;28;20408;-70
2021/01/10 10:54:14;;;;;;;58.60;30.60;;;;;;;1.72;64.72;98701.41;5089366;28;20269;-72
2021/01/10 10:56:46;;;;;;;67.07;32.90;;;;;;;1.58;62.37;98698.34;5089185;28;20045;-72
2021/01/10 10:59:13;;;;;;;66.25;32.72;;;;;;;2.02;63.43;98696.31;5089022;28;20075;-74
2021/01/10 11:01:47;;;;;;;66.45;32.80;;;;;;;2.07;64.79;98691.88;5088895;28;20144;-74
2021/01/10 11:04:12;;;;;;;60.67;31.08;;;;;;;1.71;64.42;98678.19;5088218;28;20480;-75
2021/01/10 11:06:39;;;;;;;61.55;30.73;;;;;;;2.52;60.35;98680.28;5087908;28;20047;-68
2021/01/10 11:09:08;;;;;;;61.28;31.00;;;;;;;2.24;63.18;98685.38;5073309;28;20045;-70
2021/01/10 11:11:34;;;;;;;46.50;22.95;;;;;;;1.90;63.56;98681.13;5073987;28;20399;-71
2021/01/10 11:14:00;;;;;;;42.92;21.98;;;;;;;2.11;63.95;98677.13;5088290;28;20055;-74
2021/01/10 11:16:37;;;;;;;47.30;24.08;;;;;;;3.33;60.42;98676.03;5089261;28;20075;-73
2021/01/10 11:19:05;;;;;;;50.35;25.35;;;;;;;4.39;58.39;98663.72;5076276;28;20495;-73
2021/01/10 11:21:33;;;;;;;58.03;25.58;;;;;;;3.93;56.58;98656.69;5085107;28;20461;-72
2021/01/10 11:23:59;;;;;;;58.80;27.30;;;;;;;3.96;57.90;98660.09;5072280;28;20049;-71
2021/01/10 11:26:25;;;;;;;56.00;27.10;;;;;;;3.27;59.31;98660.69;5079271;28;70021;-73
2021/01/10 11:29:39;;;;;;;49.15;24.25;;;;;;;1.71;64.68;98667.84;5069653;27;20386;-73
2021/01/10 11:32:05;;;;;;;47.85;22.98;;;;;;;1.57;63.29;98673.38;5035843;28;20428;-71
2021/01/10 11:34:31;;;;;;;55.53;27.50;;;;;;;1.34;65.80;98667.03;5056485;28;80554;-75
2021/01/10 11:36:57;;;;;;;51.95;27.23;;;;;;;1.40;66.21;98669.47;5069032;28;20470;-72
2021/01/10 11:39:25;;;;;;;50.30;24.85;;;;;;;1.14;66.38;98669.28;5069109;28;20052;-73
2021/01/10 11:41:55;;;;;;;37.50;19.00;;;;;;;1.04;64.09;98666.91;5069044;28;20048;-73
2021/01/10 11:44:25;;;;;;;39.95;20.00;;;;;;;0.84;63.01;98661.38;5057921;28;20056;-73
2021/01/10 11:46:53;;;;;;;39.13;19.95;;;;;;;0.92;64.78;98662.03;5049195;28;20064;-73
2021/01/10 11:49:20;;;;;;;39.33;18.60;;;;;;;0.77;62.63;98662.38;5048563;28;20084;-70
2021/01/10 11:51:47;;;;;;;34.65;17.35;;;;;;;0.81;63.96;98659.72;5048870;28;20041;-72
2021/01/10 11:54:15;;;;;;;40.05;19.83;;;;;;;0.89;65.89;98664.69;5050291;28;20064;-74
2021/01/10 11:56:42;;;;;;;37.78;18.63;;;;;;;0.91;62.96;98657.75;5049824;28;20564;-73
2021/01/10 11:59:11;;;;;;;35.75;18.15;;;;;;;0.88;63.81;98668.16;5060320;28;20140;-74
2021/01/10 12:01:38;;;;;;;34.60;16.80;;;;;;;0.97;63.22;98662.78;5063642;28;20076;-75
2021/01/10 12:04:05;;;;;;;30.85;16.40;;;;;;;0.79;61.13;98670.94;5081296;28;20538;-77
2021/01/10 12:06:34;;;;;;;31.92;17.30;;;;;;;1.02;61.74;98668.69;5068038;28;20139;-70
2021/01/10 12:09:01;;;;;;;29.33;14.95;;;;;;;1.01;62.52;98667.00;5067342;28;20112;-71
2021/01/10 12:11:27;;;;;;;29.48;13.32;;;;;;;0.88;62.41;98661.28;5063921;28;20131;-72
2021/01/10 12:13:53;;;;;;;22.48;10.77;;;;;;;0.66;62.55;98663.47;5048541;28;20045;-73
2021/01/10 12:16:22;;;;;;;22.52;11.52;;;;;;;0.73;58.83;98653.00;5050095;28;20041;-74
2021/01/10 12:18:48;;;;;;;24.67;11.60;;;;;;;0.58;61.46;98664.53;5064797;28;20123;-74
2021/01/10 12:21:15;;;;;;;24.98;12.30;;;;;;;0.75;62.73;98664.16;5056239;28;20128;-74
2021/01/10 12:23:41;;;;;;;31.80;13.75;;;;;;;0.78;62.89;98669.25;5068404;28;20428;-72
2021/01/10 12:26:10;;;;;;;28.30;14.32;;;;;;;0.75;67.04;98669.34;5065686;28;20094;-72
2021/01/10 12:28:37;;;;;;;48.08;23.13;;;;;;;0.47;69.27;98663.03;5048242;28;20061;-72
2021/01/10 12:31:04;;;;;;;57.70;25.63;;;;;;;0.27;70.81;98653.13;5047761;28;20053;-71
2021/01/10 12:33:34;;;;;;;68.53;30.55;;;;;;;0.12;72.76;98676.66;5048144;28;20084;-71
2021/01/10 12:36:04;;;;;;;75.60;35.03;;;;;;;0.21;72.15;98673.06;5048502;28;20060;-70
2021/01/10 12:38:31;;;;;;;79.35;37.40;;;;;;;0.28;72.47;98667.75;5058009;28;20091;-72
2021/01/10 12:40:57;;;;;;;74.53;35.72;;;;;;;0.20;74.79;98672.19;5047113;28;20615;-73
2021/01/10 12:43:23;;;;;;;89.47;40.42;;;;;;;0.04;75.49;98663.91;5046048;28;20079;-70
2021/01/10 12:45:50;;;;;;;90.53;40.83;;;;;;;-0.05;74.84;98664.97;5054513;28;20080;-72
2021/01/10 12:48:19;;;;;;;90.00;40.35;;;;;;;-0.01;75.11;98664.00;5047690;28;20041;-72
2021/01/10 12:50:47;;;;;;;93.00;41.67;;;;;;;-0.11;76.12;98672.81;5050757;28;20048;-72
2021/01/10 12:53:16;;;;;;;95.60;41.55;;;;;;;-0.21;76.74;98650.66;5037619;28;20044;-72
2021/01/10 12:55:44;;;;;;;106.57;43.53;;;;;;;-0.10;76.05;98659.03;5045998;28;20132;-72
2021/01/10 12:58:11;;;;;;;103.53;44.50;;;;;;;-0.02;73.66;98648.56;5034021;28;20060;-72
2021/01/10 13:00:37;;;;;;;106.28;45.97;;;;;;;0.14;74.08;98659.41;5034728;28;20038;-72
2021/01/10 13:03:03;;;;;;;102.07;43.97;;;;;;;-0.02;76.15;98654.59;5034233;28;20041;-70
2021/01/10 13:05:29;;;;;;;107.40;44.83;;;;;;;-0.06;75.72;98660.69;5039607;28;20052;-71
2021/01/10 13:07:55;;;;;;;102.38;44.17;;;;;;;-0.21;76.43;98659.25;5054176;28;20453;-72
2021/01/10 13:10:21;;;;;;;106.13;46.95;;;;;;;-0.11;75.61;98657.34;5053832;28;20079;-71
2021/01/10 13:12:47;;;;;;;102.78;45.28;;;;;;;0.02;74.74;98660.53;5051859;28;20088;-72
2021/01/10 13:15:13;;;;;;;102.88;46.35;;;;;;;0.12;74.43;98661.19;5049839;28;20087;-72
2021/01/10 13:17:40;;;;;;;103.95;45.00;;;;;;;0.08;74.10;98659.53;5034673;28;20493;-73
2021/01/10 13:20:06;;;;;;;113.05;46.45;;;;;;;0.07;74.28;98660.44;5033781;28;20485;-72
2021/01/10 13:22:33;;;;;;;105.07;44.65;;;;;;;0.08;73.03;98667.28;5047072;28;20429;-71
2021/01/10 13:24:59;;;;;;;107.88;44.85;;;;;;;0.06;73.05;98661.31;5051590;28;20091;-75
2021/01/10 13:27:25;;;;;;;95.85;43.42;;;;;;;0.14;72.50;98668.03;5052799;28;20068;-74
2021/01/10 13:29:52;;;;;;;102.00;44.30;;;;;;;0.07;73.45;98665.59;5054031;28;20052;-74
2021/01/10 13:32:18;;;;;;;101.20;42.50;;;;;;;-0.02;72.35;98670.06;5051897;28;20041;-72
2021/01/10 13:34:46;;;;;;;105.85;45.20;;;;;;;-0.05;73.49;98664.09;5033162;28;20561;-74
2021/01/10 13:37:13;;;;;;;98.50;42.72;;;;;;;-0.10;77.60;98666.75;5033102;28;20516;-71
2021/01/10 13:39:39;;;;;;;92.07;40.20;;;;;;;-0.12;75.74;98665.97;5042242;28;20045;-74
2021/01/10 13:42:08;;;;;;;92.15;39.63;;;;;;;-0.08;73.70;98657.28;5040552;28;20140;-75